createdAt,value
2018-09-09T00:00:47.036Z,4.63
2018-09-09T00:03:14.485Z,5.93
2018-09-09T00:05:42.030Z,4.00
2018-09-09T00:08:09.464Z,5.57
2018-09-09T00:10:36.940Z,6.83
2018-09-09T00:13:04.497Z,5.73
2018-09-09T00:15:31.913Z,6.80
2018-09-09T00:17:59.408Z,4.80
2018-09-09T00:20:26.998Z,5.43
2018-09-09T00:22:54.595Z,5.63
2018-09-09T00:25:22.142Z,5.97
2018-09-09T00:27:49.766Z,5.47
2018-09-09T00:30:17.208Z,4.70
2018-09-09T00:32:44.687Z,5.00
2018-09-09T00:35:12.301Z,5.17
2018-09-09T00:37:39.754Z,6.30
2018-09-09T00:40:07.242Z,4.40
2018-09-09T00:42:34.941Z,4.57
2018-09-09T00:45:02.479Z,5.73
2018-09-09T00:47:29.903Z,3.80
2018-09-09T00:50:02.773Z,4.63
2018-09-09T00:52:35.736Z,4.60
2018-09-09T00:55:03.363Z,7.20
2018-09-09T00:57:30.838Z,3.83
2018-09-09T00:59:58.346Z,6.37
2018-09-09T01:02:25.979Z,6.43
2018-09-09T01:04:53.515Z,4.30
2018-09-09T01:07:20.930Z,5.47
2018-09-09T01:09:48.481Z,4.73
2018-09-09T01:12:15.983Z,3.90
2018-09-09T01:14:43.474Z,4.60
2018-09-09T01:17:11.071Z,6.63
2018-09-09T01:19:38.520Z,5.17
2018-09-09T01:22:06.065Z,5.37
2018-09-09T01:24:33.961Z,5.40
2018-09-09T01:27:01.426Z,4.57
2018-09-09T01:29:28.879Z,5.43
2018-09-09T01:31:56.568Z,4.67
2018-09-09T01:34:24.021Z,5.20
2018-09-09T01:36:51.478Z,6.27
2018-09-09T01:39:19.085Z,5.80
2018-09-09T01:41:46.524Z,5.33
2018-09-09T01:44:14.002Z,6.57
2018-09-09T01:46:41.719Z,5.27
2018-09-09T01:49:09.160Z,6.30
2018-09-09T01:51:36.639Z,4.93
2018-09-09T01:54:04.214Z,5.60
2018-09-09T01:56:31.674Z,4.93
2018-09-09T01:58:59.076Z,6.00
2018-09-09T02:01:26.741Z,5.47
2018-09-09T02:03:54.197Z,5.33
2018-09-09T02:06:21.828Z,7.53
2018-09-09T02:08:49.366Z,7.87
2018-09-09T02:11:16.818Z,5.40
2018-09-09T02:13:44.285Z,5.07
2018-09-09T02:16:11.947Z,6.13
2018-09-09T02:18:39.424Z,8.07
2018-09-09T02:21:06.889Z,8.53
2018-09-09T02:23:34.619Z,8.13
2018-09-09T02:26:02.352Z,9.10
2018-09-09T02:28:29.826Z,8.57
2018-09-09T02:30:57.412Z,10.17
2018-09-09T02:33:24.843Z,11.90
2018-09-09T02:35:52.383Z,11.60
2018-09-09T02:38:20.116Z,12.03
2018-09-09T02:40:47.594Z,10.30
2018-09-09T02:43:15.045Z,10.83
2018-09-09T02:45:42.750Z,10.73
2018-09-09T02:48:10.231Z,13.33
2018-09-09T02:50:37.930Z,12.63
2018-09-09T02:53:05.762Z,11.17
2018-09-09T02:55:36.496Z,13.93
2018-09-09T02:58:03.968Z,13.10
2018-09-09T03:00:31.668Z,14.27
2018-09-09T03:02:59.168Z,14.10
2018-09-09T03:05:26.666Z,12.13
2018-09-09T03:07:54.287Z,14.10
2018-09-09T03:10:21.722Z,14.83
2018-09-09T03:12:49.110Z,14.37
2018-09-09T03:15:17.032Z,14.37
2018-09-09T03:17:44.481Z,15.70
2018-09-09T03:20:11.913Z,13.10
2018-09-09T03:22:39.552Z,16.80
2018-09-09T03:25:07.041Z,14.73
2018-09-09T03:27:34.646Z,15.27
2018-09-09T03:30:02.252Z,16.73
2018-09-09T03:32:29.733Z,14.07
2018-09-09T03:34:57.194Z,17.13
2018-09-09T03:37:24.872Z,14.50
2018-09-09T03:42:24.999Z,15.93
2018-09-09T03:44:52.790Z,14.53
2018-09-09T03:47:20.258Z,13.87
2018-09-09T03:49:47.751Z,16.00
2018-09-09T03:52:15.358Z,14.33
2018-09-09T03:54:42.872Z,14.67
2018-09-09T03:57:10.339Z,14.30
2018-09-09T03:59:38.070Z,13.67
2018-09-09T04:02:05.798Z,14.27
2018-09-09T04:04:33.298Z,13.73
2018-09-09T04:07:01.059Z,16.03
2018-09-09T04:09:28.505Z,14.50
2018-09-09T04:11:55.947Z,13.17
2018-09-09T04:14:23.606Z,12.27
2018-09-09T04:16:51.358Z,11.80
2018-09-09T04:19:18.759Z,12.60
2018-09-09T04:21:50.743Z,11.13
2018-09-09T04:24:18.652Z,10.50
2018-09-09T04:26:46.157Z,10.90
2018-09-09T04:29:14.203Z,12.20
2018-09-09T04:31:41.799Z,9.93
2018-09-09T04:34:09.364Z,10.47
2018-09-09T04:36:36.968Z,10.53
2018-09-09T04:39:07.350Z,12.23
2018-09-09T04:41:34.808Z,10.33
2018-09-09T04:44:02.465Z,9.13
2018-09-09T04:46:29.929Z,9.20
2018-09-09T04:48:57.436Z,10.70
2018-09-09T04:51:25.186Z,8.53
2018-09-09T04:53:52.598Z,8.77
2018-09-09T04:56:20.111Z,9.00
2018-09-09T04:58:47.715Z,8.77
2018-09-09T05:01:15.230Z,9.80
2018-09-09T05:03:45.458Z,10.80
2018-09-09T05:06:13.140Z,8.73
2018-09-09T05:08:40.662Z,9.90
2018-09-09T05:11:08.167Z,8.03
2018-09-09T05:13:35.732Z,8.13
2018-09-09T05:16:03.187Z,9.83
2018-09-09T05:18:30.668Z,8.60
2018-09-09T05:20:58.135Z,13.57
2018-09-09T05:23:25.646Z,8.13
2018-09-09T05:25:53.122Z,8.33
2018-09-09T05:28:20.759Z,10.63
2018-09-09T05:30:48.449Z,8.53
2018-09-09T05:33:15.882Z,9.03
2018-09-09T05:35:43.594Z,9.20
2018-09-09T05:38:11.099Z,9.30
2018-09-09T05:40:38.731Z,10.40
2018-09-09T05:43:06.349Z,8.63
2018-09-09T05:45:33.882Z,10.73
2018-09-09T05:48:01.335Z,9.67
2018-09-09T05:50:28.948Z,9.13
2018-09-09T05:52:56.388Z,7.93
2018-09-09T05:56:26.678Z,7.40
2018-09-09T05:58:54.237Z,7.73
2018-09-09T06:01:21.844Z,9.90
2018-09-09T06:03:49.509Z,9.60
2018-09-09T06:06:16.921Z,7.93
2018-09-09T06:08:44.439Z,8.27
2018-09-09T06:11:12.088Z,6.23
2018-09-09T06:13:39.514Z,6.77
2018-09-09T06:16:07.000Z,7.93
2018-09-09T06:18:34.697Z,7.60
2018-09-09T06:21:02.141Z,6.97
2018-09-09T06:23:29.644Z,7.90
2018-09-09T06:25:57.290Z,6.30
2018-09-09T06:28:24.877Z,6.77
2018-09-09T06:30:52.391Z,6.87
2018-09-09T06:33:19.924Z,7.70
2018-09-09T06:35:47.370Z,10.07
2018-09-09T06:38:14.884Z,8.87
2018-09-09T06:40:42.478Z,9.27
2018-09-09T06:43:09.995Z,9.23
2018-09-09T06:45:37.477Z,7.20
2018-09-09T06:48:05.062Z,8.57
2018-09-09T06:50:32.515Z,9.30
2018-09-09T06:52:59.970Z,10.67
2018-09-09T06:55:27.812Z,10.13
2018-09-09T06:57:55.265Z,11.00
2018-09-09T07:00:22.741Z,11.27
2018-09-09T07:02:50.403Z,10.40
2018-09-09T07:05:17.860Z,9.33
2018-09-09T07:07:45.367Z,9.90
2018-09-09T07:10:13.232Z,9.47
2018-09-09T07:12:40.700Z,10.87
2018-09-09T07:15:08.344Z,11.53
2018-09-09T07:17:36.270Z,11.83
2018-09-09T07:20:03.744Z,10.93
2018-09-09T07:22:31.221Z,10.27
2018-09-09T07:24:58.859Z,10.90
2018-09-09T07:27:26.314Z,11.80
2018-09-09T07:29:53.765Z,11.47
2018-09-09T07:32:21.581Z,11.50
2018-09-09T07:34:49.056Z,10.10
2018-09-09T07:37:16.559Z,10.10
2018-09-09T07:39:44.316Z,13.43
2018-09-09T07:42:11.748Z,11.07
2018-09-09T07:44:39.238Z,9.47
2018-09-09T07:47:07.022Z,11.07
2018-09-09T07:49:34.472Z,12.30
2018-09-09T07:52:01.894Z,11.10
2018-09-09T07:54:29.480Z,10.53
2018-09-09T07:56:56.925Z,10.43
2018-09-09T07:59:24.355Z,11.73
2018-09-09T08:02:22.493Z,11.40
2018-09-09T08:04:49.921Z,7.90
2018-09-09T08:07:17.354Z,12.13
2018-09-09T08:09:44.956Z,10.43
2018-09-09T08:12:12.440Z,10.17
2018-09-09T08:14:39.853Z,9.03
2018-09-09T08:17:07.623Z,9.63
2018-09-09T08:19:35.068Z,9.73
2018-09-09T08:22:02.541Z,11.60
2018-09-09T08:24:30.289Z,10.43
2018-09-09T08:26:57.712Z,11.90
2018-09-09T08:29:25.242Z,11.53
2018-09-09T08:31:52.898Z,10.03
2018-09-09T08:34:20.591Z,10.63
2018-09-09T08:36:48.084Z,11.00
2018-09-09T08:39:15.828Z,13.20
2018-09-09T08:41:43.288Z,10.97
2018-09-09T08:44:10.810Z,13.83
2018-09-09T08:46:38.483Z,14.03
2018-09-09T08:49:06.053Z,10.90
2018-09-09T08:51:33.779Z,11.77
2018-09-09T08:54:01.535Z,14.20
2018-09-09T08:57:31.727Z,14.60
2018-09-09T08:59:59.455Z,13.93
2018-09-09T09:02:26.922Z,13.63
2018-09-09T09:04:54.385Z,16.97
2018-09-09T09:07:22.046Z,14.37
2018-09-09T09:09:49.517Z,16.83
2018-09-09T09:12:17.046Z,14.97
2018-09-09T09:14:44.753Z,13.50
2018-09-09T09:17:12.239Z,17.43
2018-09-09T09:19:39.781Z,14.53
2018-09-09T09:22:07.517Z,15.60
2018-09-09T09:24:35.049Z,17.20
2018-09-09T09:27:02.536Z,14.23
2018-09-09T09:30:00.796Z,13.63
2018-09-09T09:32:28.312Z,16.97
2018-09-09T09:34:56.432Z,19.27
2018-09-09T09:37:25.172Z,14.13
2018-09-09T09:39:53.419Z,15.90
2018-09-09T09:42:21.120Z,16.13
2018-09-09T09:44:48.658Z,15.40
2018-09-09T09:47:16.164Z,16.30
2018-09-09T09:49:43.787Z,14.47
2018-09-09T09:52:11.286Z,16.73
2018-09-09T09:54:39.188Z,17.40
2018-09-09T09:57:07.389Z,13.43
2018-09-09T09:59:34.897Z,19.93
2018-09-09T10:02:02.507Z,17.53
2018-09-09T10:04:30.111Z,19.33
2018-09-09T10:06:57.509Z,14.63
2018-09-09T10:09:24.978Z,13.70
2018-09-09T10:11:52.413Z,13.60
2018-09-09T10:14:19.907Z,19.03
2018-09-09T10:16:47.426Z,16.17
2018-09-09T10:19:14.888Z,18.17
2018-09-09T10:21:42.408Z,17.13
2018-09-09T10:24:09.887Z,17.70
2018-09-09T10:26:37.351Z,13.93
2018-09-09T10:29:04.933Z,14.30
2018-09-09T10:31:32.438Z,17.93
2018-09-09T10:34:00.000Z,19.07
2018-09-09T10:36:27.733Z,16.77
2018-09-09T10:38:55.210Z,15.77
2018-09-09T10:41:22.740Z,17.57
2018-09-09T10:43:50.164Z,16.20
2018-09-09T10:46:17.826Z,17.37
2018-09-09T10:48:45.227Z,18.63
2018-09-09T10:51:12.683Z,15.63
2018-09-09T10:53:40.102Z,20.93
2018-09-09T10:56:07.542Z,16.10
2018-09-09T10:58:35.007Z,15.03
2018-09-09T11:01:02.521Z,16.93
2018-09-09T11:03:30.162Z,16.43
2018-09-09T11:05:57.851Z,15.00
2018-09-09T11:08:25.362Z,16.03
2018-09-09T11:10:52.806Z,14.00
2018-09-09T11:13:20.366Z,17.07
2018-09-09T11:15:47.851Z,14.13
2018-09-09T11:18:15.284Z,19.17
2018-09-09T11:20:42.814Z,17.57
2018-09-09T11:23:10.338Z,17.30
2018-09-09T11:25:43.378Z,17.07
2018-09-09T11:28:10.803Z,14.23
2018-09-09T11:30:38.304Z,15.70
2018-09-09T11:33:05.970Z,14.13
2018-09-09T11:35:33.472Z,14.13
2018-09-09T11:38:01.241Z,17.87
2018-09-09T11:40:28.796Z,14.97
2018-09-09T11:42:56.286Z,17.27
2018-09-09T11:45:23.747Z,17.50
2018-09-09T11:47:51.255Z,15.27
2018-09-09T11:50:18.802Z,18.43
2018-09-09T11:52:46.252Z,18.60
2018-09-09T11:55:13.724Z,15.27
2018-09-09T11:57:41.277Z,14.80
2018-09-09T12:00:08.888Z,16.70
2018-09-09T12:02:36.390Z,17.47
2018-09-09T12:05:03.868Z,16.57
2018-09-09T12:07:31.590Z,20.37
2018-09-09T12:09:59.072Z,17.83
2018-09-09T12:12:27.369Z,18.90
2018-09-09T12:14:55.470Z,17.80
2018-09-09T12:17:22.956Z,20.30
2018-09-09T12:19:50.401Z,18.30
2018-09-09T12:22:17.895Z,20.23
2018-09-09T12:24:45.369Z,19.53
2018-09-09T12:27:12.830Z,16.97
2018-09-09T12:29:40.275Z,18.80
2018-09-09T12:32:07.732Z,16.33
2018-09-09T12:34:35.197Z,22.50
2018-09-09T12:37:02.674Z,17.30
2018-09-09T12:39:30.406Z,20.10
2018-09-09T12:41:57.893Z,18.60
2018-09-09T12:44:30.999Z,19.43
2018-09-09T12:47:04.098Z,18.50
2018-09-09T12:49:31.573Z,14.77
2018-09-09T12:51:59.060Z,15.23
2018-09-09T12:54:26.517Z,17.23
2018-09-09T12:56:53.997Z,15.07
2018-09-09T12:59:21.512Z,17.37
2018-09-09T13:01:49.013Z,15.57
2018-09-09T13:04:16.475Z,17.50
2018-09-09T13:06:43.907Z,15.07
2018-09-09T13:09:11.534Z,15.17
2018-09-09T13:11:39.095Z,16.13
2018-09-09T13:14:06.725Z,16.23
2018-09-09T13:16:34.163Z,15.37
2018-09-09T13:19:01.547Z,15.53
2018-09-09T13:21:29.028Z,18.27
2018-09-09T13:23:56.560Z,16.77
2018-09-09T13:26:24.135Z,15.87
2018-09-09T13:28:51.521Z,15.57
2018-09-09T13:31:19.012Z,15.10
2018-09-09T13:33:46.544Z,15.23
2018-09-09T13:36:13.983Z,13.37
2018-09-09T13:38:41.456Z,13.63
2018-09-09T13:41:09.014Z,15.73
2018-09-09T13:43:36.495Z,18.10
2018-09-09T13:46:04.067Z,14.87
2018-09-09T13:48:31.591Z,15.50
2018-09-09T13:50:59.269Z,15.60
2018-09-09T13:53:26.860Z,17.70
2018-09-09T13:55:54.346Z,18.97
2018-09-09T13:58:21.850Z,15.47
2018-09-09T14:00:49.297Z,15.07
2018-09-09T14:03:16.776Z,14.63
2018-09-09T14:05:44.308Z,18.73
2018-09-09T14:08:11.768Z,14.60
2018-09-09T14:10:39.414Z,12.80
2018-09-09T14:13:06.907Z,13.93
2018-09-09T14:15:34.330Z,13.63
2018-09-09T14:18:01.782Z,13.13
2018-09-09T14:20:29.259Z,14.90
2018-09-09T14:22:56.670Z,14.93
2018-09-09T14:25:24.221Z,14.13
2018-09-09T14:27:51.764Z,14.10
2018-09-09T14:30:19.222Z,16.10
2018-09-09T14:32:46.681Z,14.07
2018-09-09T14:35:14.131Z,15.13
2018-09-09T14:37:41.664Z,16.93
2018-09-09T14:40:09.104Z,14.13
2018-09-09T14:42:36.740Z,14.33
2018-09-09T14:45:04.235Z,15.07
2018-09-09T14:47:31.725Z,17.17
2018-09-09T14:49:59.274Z,18.80
2018-09-09T14:52:26.733Z,14.00
2018-09-09T14:54:54.179Z,13.97
2018-09-09T14:57:21.665Z,13.50
2018-09-09T14:59:49.226Z,16.37
2018-09-09T15:02:16.730Z,15.03
2018-09-09T15:04:44.212Z,16.30
2018-09-09T15:07:11.692Z,14.67
2018-09-09T15:09:39.163Z,15.00
2018-09-09T15:12:06.923Z,17.53
2018-09-09T15:14:34.419Z,15.07
2018-09-09T15:17:01.863Z,13.30
2018-09-09T15:19:29.512Z,15.83
2018-09-09T15:21:56.982Z,14.40
2018-09-09T15:26:58.602Z,15.73
2018-09-09T15:29:26.115Z,14.63
2018-09-09T15:31:53.559Z,15.13
2018-09-09T15:34:21.102Z,15.00
2018-09-09T15:36:48.549Z,15.43
2018-09-09T15:39:16.019Z,14.40
2018-09-09T15:41:43.479Z,17.47
2018-09-09T15:44:11.169Z,16.00
2018-09-09T15:46:38.653Z,15.30
2018-09-09T15:49:06.120Z,14.20
2018-09-09T15:51:33.600Z,14.37
2018-09-09T15:54:01.065Z,15.10
2018-09-09T15:56:28.564Z,14.70
2018-09-09T15:58:56.142Z,11.23
2018-09-09T16:01:23.624Z,15.70
2018-09-09T16:03:51.070Z,13.20
2018-09-09T16:06:18.499Z,20.03
2018-09-09T16:08:45.987Z,14.50
2018-09-09T16:11:13.433Z,14.70
2018-09-09T16:13:41.062Z,15.30
2018-09-09T16:16:08.479Z,15.40
2018-09-09T16:18:35.894Z,12.47
2018-09-09T16:21:03.415Z,14.80
2018-09-09T16:23:30.880Z,18.53
2018-09-09T16:25:58.279Z,16.93
2018-09-09T16:28:25.808Z,14.80
2018-09-09T16:30:53.332Z,14.20
2018-09-09T16:33:20.822Z,13.33
2018-09-09T16:35:48.368Z,13.57
2018-09-09T16:38:15.807Z,15.03
2018-09-09T16:40:43.298Z,11.47
2018-09-09T16:43:10.821Z,15.03
2018-09-09T16:45:38.448Z,12.00
2018-09-09T16:48:06.363Z,14.80
2018-09-09T16:50:33.906Z,13.63
2018-09-09T16:53:01.293Z,16.43
2018-09-09T16:55:28.767Z,14.90
2018-09-09T16:57:56.238Z,13.47
2018-09-09T17:00:23.734Z,17.73
2018-09-09T17:02:51.170Z,12.80
2018-09-09T17:05:18.627Z,13.50
2018-09-09T17:07:46.092Z,15.70
2018-09-09T17:10:13.567Z,15.67
2018-09-09T17:12:41.039Z,15.10
2018-09-09T17:15:08.665Z,12.07
2018-09-09T17:17:36.142Z,13.20
2018-09-09T17:20:03.658Z,13.70
2018-09-09T17:22:31.179Z,13.57
2018-09-09T17:24:58.602Z,14.00
2018-09-09T17:27:26.045Z,12.70
2018-09-09T17:29:53.524Z,13.13
2018-09-09T17:32:20.978Z,12.80
2018-09-09T17:34:48.494Z,14.70
2018-09-09T17:37:15.965Z,11.60
2018-09-09T17:39:43.426Z,13.20
2018-09-09T17:42:10.855Z,13.23
2018-09-09T17:44:38.286Z,16.00
2018-09-09T17:47:05.993Z,13.13
2018-09-09T17:49:33.424Z,12.90
2018-09-09T17:52:00.852Z,15.17
2018-09-09T17:54:28.573Z,12.20
2018-09-09T17:56:56.053Z,13.93
2018-09-09T17:59:23.515Z,15.43
2018-09-09T18:01:51.011Z,11.20
2018-09-09T18:04:18.494Z,14.87
2018-09-09T18:06:46.022Z,14.67
2018-09-09T18:09:13.545Z,13.23
2018-09-09T18:11:41.040Z,12.80
2018-09-09T18:14:08.705Z,12.67
2018-09-09T18:16:36.234Z,13.10
2018-09-09T18:19:03.756Z,12.70
2018-09-09T18:21:31.235Z,12.03
2018-09-09T18:23:58.667Z,14.67
2018-09-09T18:26:26.135Z,14.07
2018-09-09T18:28:53.568Z,14.70
2018-09-09T18:31:21.032Z,12.53
2018-09-09T18:33:48.508Z,14.97
2018-09-09T18:36:15.950Z,14.80
2018-09-09T18:38:43.614Z,13.10
2018-09-09T18:41:11.029Z,12.73
2018-09-09T18:43:38.478Z,16.57
2018-09-09T18:46:06.170Z,14.10
2018-09-09T18:48:33.731Z,12.23
2018-09-09T18:51:01.221Z,15.33
2018-09-09T18:53:28.658Z,11.83
2018-09-09T18:55:56.166Z,13.83
2018-09-09T18:58:23.678Z,13.93
2018-09-09T19:00:51.353Z,18.00
2018-09-09T19:03:18.876Z,13.33
2018-09-09T19:05:46.422Z,13.13
2018-09-09T19:08:13.982Z,13.80
2018-09-09T19:10:41.495Z,13.17
2018-09-09T19:13:09.050Z,12.27
2018-09-09T19:15:36.518Z,13.57
2018-09-09T19:18:04.234Z,18.30
2018-09-09T19:20:31.694Z,17.27
2018-09-09T19:22:59.159Z,15.07
2018-09-09T19:25:26.734Z,11.77
2018-09-09T19:27:54.221Z,11.73
2018-09-09T19:30:21.646Z,14.20
2018-09-09T19:32:49.099Z,13.40
2018-09-09T19:35:16.578Z,14.87
2018-09-09T19:37:43.969Z,13.50
2018-09-09T19:40:11.439Z,13.93
2018-09-09T19:42:38.917Z,14.70
2018-09-09T19:45:06.792Z,14.40
2018-09-09T19:47:34.597Z,13.77
2018-09-09T19:50:03.347Z,15.83
2018-09-09T19:52:30.839Z,12.93
2018-09-09T19:54:58.437Z,14.63
2018-09-09T19:57:25.937Z,14.70
2018-09-09T19:59:53.567Z,15.23
2018-09-09T20:02:21.143Z,13.53
2018-09-09T20:04:48.701Z,13.67
2018-09-09T20:07:16.079Z,13.17
2018-09-09T20:09:43.538Z,17.10
2018-09-09T20:12:10.964Z,15.53
2018-09-09T20:14:38.437Z,16.20
2018-09-09T20:17:05.902Z,15.27
2018-09-09T20:19:33.369Z,15.60
2018-09-09T20:22:01.113Z,13.77
2018-09-09T20:24:28.520Z,13.60
2018-09-09T20:26:56.027Z,16.23
2018-09-09T20:29:23.497Z,14.80
2018-09-09T20:31:50.973Z,13.90
2018-09-09T20:34:18.470Z,16.20
2018-09-09T20:36:45.989Z,15.33
2018-09-09T20:39:13.473Z,16.50
2018-09-09T20:41:41.156Z,15.17
2018-09-09T20:44:08.681Z,13.60
2018-09-09T20:46:36.273Z,13.93
2018-09-09T20:49:03.758Z,15.07
2018-09-09T20:51:31.315Z,14.97
2018-09-09T20:53:58.775Z,13.20
2018-09-09T20:56:26.251Z,13.93
2018-09-09T20:58:53.793Z,13.13
2018-09-09T21:01:21.266Z,13.87
2018-09-09T21:03:48.696Z,14.73
2018-09-09T21:06:16.190Z,14.03
2018-09-09T21:08:43.661Z,12.97
2018-09-09T21:11:11.137Z,14.77
2018-09-09T21:13:38.721Z,14.50
2018-09-09T21:16:06.318Z,13.97
2018-09-09T21:18:33.840Z,13.17
2018-09-09T21:21:01.494Z,15.53
2018-09-09T21:23:28.948Z,13.07
2018-09-09T21:25:56.447Z,13.57
2018-09-09T21:28:23.873Z,13.03
2018-09-09T21:30:51.499Z,13.43
2018-09-09T21:33:18.982Z,11.93
2018-09-09T21:35:46.437Z,12.40
2018-09-09T21:38:13.995Z,15.10
2018-09-09T21:40:41.481Z,11.27
2018-09-09T21:43:08.881Z,12.03
2018-09-09T21:45:36.352Z,14.43
2018-09-09T21:48:04.042Z,11.53
2018-09-09T21:50:31.531Z,15.43
2018-09-09T21:52:59.140Z,10.87
2018-09-09T21:55:26.578Z,12.93
2018-09-09T21:57:54.038Z,13.30
2018-09-09T22:00:21.516Z,12.77
2018-09-09T22:02:48.989Z,12.30
2018-09-09T22:05:16.459Z,13.23
2018-09-09T22:07:43.909Z,12.00
2018-09-09T22:10:11.428Z,11.40
2018-09-09T22:12:38.957Z,13.30
2018-09-09T22:15:06.529Z,11.63
2018-09-09T22:17:33.964Z,12.40
2018-09-09T22:20:01.450Z,14.60
2018-09-09T22:22:29.362Z,12.00
2018-09-09T22:24:56.787Z,10.83
2018-09-09T22:27:24.224Z,12.23
2018-09-09T22:29:51.662Z,13.87
2018-09-09T22:32:19.142Z,13.57
2018-09-09T22:34:46.691Z,11.97
2018-09-09T22:37:14.210Z,12.57
2018-09-09T22:39:44.538Z,13.07
2018-09-09T22:42:11.993Z,13.43
2018-09-09T22:44:39.427Z,12.77
2018-09-09T22:47:06.928Z,13.73
2018-09-09T22:49:34.477Z,12.40
2018-09-09T22:52:01.920Z,9.73
2018-09-09T22:54:29.541Z,11.37
2018-09-09T22:56:57.036Z,12.70
2018-09-09T22:59:24.510Z,11.90
2018-09-09T23:01:51.966Z,13.30
2018-09-09T23:04:19.481Z,10.27
2018-09-09T23:06:46.961Z,12.43
2018-09-09T23:09:14.454Z,11.83
2018-09-09T23:11:41.926Z,12.03
2018-09-09T23:14:09.410Z,11.87
2018-09-09T23:16:36.972Z,10.50
2018-09-09T23:19:04.569Z,12.07
2018-09-09T23:21:32.037Z,12.80
2018-09-09T23:23:59.718Z,13.57
2018-09-09T23:26:27.240Z,12.83
2018-09-09T23:28:54.954Z,10.37
2018-09-09T23:31:22.418Z,12.87
2018-09-09T23:33:49.923Z,11.63
2018-09-09T23:36:17.384Z,11.27
2018-09-09T23:38:44.845Z,10.30
2018-09-09T23:41:12.320Z,12.40
2018-09-09T23:43:39.826Z,12.77
2018-09-09T23:46:07.293Z,11.57
2018-09-09T23:48:34.783Z,12.13
2018-09-09T23:51:02.310Z,10.33
2018-09-09T23:53:29.763Z,10.97
2018-09-09T23:55:57.763Z,11.40
2018-09-09T23:58:25.272Z,9.20
